createdAt,value
2018-08-28T00:04:14.648Z,16.20
2018-08-28T00:09:17.199Z,16.30
2018-08-28T00:14:19.728Z,16.40
2018-08-28T00:19:22.246Z,16.60
2018-08-28T00:24:24.825Z,16.60
2018-08-28T00:29:27.394Z,16.60
2018-08-28T00:34:29.912Z,16.60
2018-08-28T00:39:32.451Z,16.80
2018-08-28T00:44:34.975Z,16.70
2018-08-28T00:49:37.488Z,16.70
2018-08-28T00:54:40.063Z,16.70
2018-08-28T00:59:42.678Z,16.70
2018-08-28T01:04:45.205Z,16.70
2018-08-28T01:09:47.755Z,16.70
2018-08-28T01:14:50.265Z,17.90
2018-08-28T01:19:52.830Z,16.70
2018-08-28T01:24:55.357Z,16.70
2018-08-28T01:29:57.907Z,16.70
2018-08-28T01:35:01.264Z,16.70
2018-08-28T01:40:03.828Z,16.70
2018-08-28T01:45:06.416Z,16.70
2018-08-28T01:50:08.927Z,16.70
2018-08-28T01:55:11.464Z,16.70
2018-08-28T02:00:13.982Z,16.80
2018-08-28T02:05:16.550Z,16.80
2018-08-28T02:10:19.090Z,16.80
2018-08-28T02:15:21.631Z,16.80
2018-08-28T02:20:24.166Z,16.80
2018-08-28T02:25:26.714Z,16.80
2018-08-28T02:30:29.246Z,17.00
2018-08-28T02:35:31.800Z,16.90
2018-08-28T02:40:34.351Z,18.10
2018-08-28T02:45:36.878Z,16.80
2018-08-28T02:50:39.413Z,16.60
2018-08-28T02:55:41.943Z,16.40
2018-08-28T03:00:44.498Z,16.30
2018-08-28T03:05:47.018Z,16.00
2018-08-28T03:10:49.540Z,15.80
2018-08-28T03:15:52.151Z,11.60
2018-08-28T03:20:54.643Z,15.60
2018-08-28T03:25:57.139Z,15.70
2018-08-28T03:30:59.675Z,15.70
2018-08-28T03:36:02.221Z,15.70
2018-08-28T03:41:04.835Z,15.80
2018-08-28T03:46:07.353Z,15.80
2018-08-28T03:51:10.135Z,15.60
2018-08-28T03:56:12.654Z,15.50
2018-08-28T04:01:15.163Z,15.30
2018-08-28T04:06:17.730Z,15.30
2018-08-28T04:11:20.291Z,15.30
2018-08-28T04:16:22.844Z,15.30
2018-08-28T04:21:25.387Z,15.50
2018-08-28T04:26:27.901Z,15.60
2018-08-28T04:31:30.458Z,15.60
2018-08-28T04:36:32.981Z,15.70
2018-08-28T04:41:35.555Z,15.70
2018-08-28T04:46:38.069Z,15.60
2018-08-28T04:51:40.652Z,15.50
2018-08-28T04:56:43.181Z,15.70
2018-08-28T05:01:45.938Z,15.70
2018-08-28T05:06:48.430Z,15.80
2018-08-28T05:11:51.072Z,15.80
2018-08-28T05:16:53.495Z,15.80
2018-08-28T05:21:56.056Z,15.70
2018-08-28T05:26:58.572Z,16.20
2018-08-28T05:32:01.104Z,15.80
2018-08-28T05:37:04.392Z,15.70
2018-08-28T05:42:06.988Z,15.60
2018-08-28T05:47:09.518Z,15.80
2018-08-28T05:52:12.046Z,15.60
2018-08-28T05:57:14.563Z,15.60
2018-08-28T06:02:17.124Z,15.70
2018-08-28T06:07:19.615Z,16.10
2018-08-28T06:12:22.123Z,15.90
2018-08-28T06:17:24.631Z,16.10
2018-08-28T06:22:27.158Z,16.30
2018-08-28T06:27:29.724Z,16.50
2018-08-28T06:32:32.258Z,16.70
2018-08-28T06:37:34.771Z,17.00
2018-08-28T06:42:37.308Z,17.30
2018-08-28T06:47:39.816Z,17.50
2018-08-28T06:52:42.451Z,17.80
2018-08-28T06:57:44.947Z,17.90
2018-08-28T07:02:47.498Z,18.00
2018-08-28T07:07:50.042Z,18.30
2018-08-28T07:12:52.544Z,18.40
2018-08-28T07:17:55.082Z,18.80
2018-08-28T07:22:57.664Z,19.00
2018-08-28T07:28:00.462Z,19.10
2018-08-28T07:33:03.068Z,19.20
2018-08-28T07:38:05.620Z,19.30
2018-08-28T07:43:08.297Z,19.40
2018-08-28T07:48:10.908Z,19.70
2018-08-28T07:53:13.472Z,20.00
2018-08-28T07:58:16.031Z,21.30
2018-08-28T08:03:25.276Z,20.40
2018-08-28T08:08:27.782Z,20.70
2018-08-28T08:13:30.861Z,20.70
2018-08-28T08:18:33.500Z,21.10
2018-08-28T08:23:36.113Z,21.50
2018-08-28T08:28:38.648Z,21.90
2018-08-28T08:33:42.286Z,22.20
2018-08-28T08:38:44.839Z,22.60
2018-08-28T08:43:47.402Z,23.00
2018-08-28T08:48:49.918Z,23.20
2018-08-28T08:53:52.486Z,24.10
2018-08-28T08:58:55.063Z,24.20
2018-08-28T09:03:57.600Z,24.90
2018-08-28T09:09:00.151Z,25.20
2018-08-28T09:14:02.729Z,25.80
2018-08-28T09:19:05.271Z,26.50
2018-08-28T09:24:07.805Z,26.50
2018-08-28T09:29:10.772Z,26.50
2018-08-28T09:34:13.282Z,27.00
2018-08-28T09:39:15.859Z,27.80
2018-08-28T09:44:18.407Z,28.70
2018-08-28T09:49:20.955Z,28.80
2018-08-28T09:54:23.752Z,28.90
2018-08-28T09:59:26.320Z,29.10
2018-08-28T10:04:28.880Z,27.90
2018-08-28T10:09:31.440Z,28.40
2018-08-28T10:14:33.971Z,29.20
2018-08-28T10:19:36.485Z,30.20
2018-08-28T10:24:39.056Z,30.80
2018-08-28T10:29:41.637Z,30.60
2018-08-28T10:34:45.588Z,30.40
2018-08-28T10:39:48.118Z,31.20
2018-08-28T10:44:50.663Z,32.00
2018-08-28T10:49:53.751Z,32.80
2018-08-28T10:54:56.290Z,32.20
2018-08-28T10:59:58.818Z,31.70
2018-08-28T11:05:01.447Z,32.30
2018-08-28T11:10:04.067Z,31.90
2018-08-28T11:15:06.660Z,32.60
2018-08-28T11:20:09.227Z,32.90
2018-08-28T11:25:11.785Z,32.90
2018-08-28T11:30:14.483Z,33.20
2018-08-28T11:35:17.015Z,31.60
2018-08-28T11:40:19.606Z,32.80
2018-08-28T11:45:22.162Z,33.90
2018-08-28T11:50:24.683Z,33.80
2018-08-28T11:55:27.232Z,34.10
2018-08-28T12:00:29.771Z,35.30
2018-08-28T12:05:32.308Z,36.50
2018-08-28T12:10:34.915Z,37.20
2018-08-28T12:15:37.499Z,36.90
2018-08-28T12:20:40.031Z,36.90
2018-08-28T12:25:42.577Z,37.80
2018-08-28T12:30:45.268Z,38.80
2018-08-28T12:35:48.077Z,38.90
2018-08-28T12:40:50.678Z,39.40
2018-08-28T12:45:53.282Z,41.40
2018-08-28T12:50:56.003Z,40.60
2018-08-28T12:55:58.523Z,40.00
2018-08-28T13:01:01.095Z,39.20
2018-08-28T13:06:03.655Z,38.70
2018-08-28T13:11:06.701Z,38.40
2018-08-28T13:16:09.235Z,38.80
2018-08-28T13:21:11.748Z,39.10
2018-08-28T13:26:14.293Z,40.20
2018-08-28T13:31:16.823Z,41.80
2018-08-28T13:36:19.439Z,42.60
2018-08-28T13:41:22.011Z,40.90
2018-08-28T13:46:24.539Z,41.90
2018-08-28T13:51:27.179Z,41.60
2018-08-28T13:56:29.767Z,41.20
2018-08-28T14:01:32.335Z,41.70
2018-08-28T14:06:38.238Z,41.50
2018-08-28T14:11:40.842Z,40.80
2018-08-28T14:16:43.401Z,41.70
2018-08-28T14:21:45.939Z,41.80
2018-08-28T14:26:48.534Z,41.50
2018-08-28T14:31:51.213Z,40.80
2018-08-28T14:36:53.726Z,40.60
2018-08-28T14:41:56.317Z,41.10
2018-08-28T14:46:58.895Z,41.60
2018-08-28T14:52:01.504Z,40.90
2018-08-28T14:57:04.099Z,40.60
2018-08-28T15:02:06.694Z,41.90
2018-08-28T15:07:09.368Z,41.20
2018-08-28T15:12:11.831Z,40.40
2018-08-28T15:17:15.331Z,40.20
2018-08-28T15:22:17.871Z,39.50
2018-08-28T15:27:20.698Z,40.40
2018-08-28T15:32:23.208Z,38.80
2018-08-28T15:37:25.752Z,39.20
2018-08-28T15:42:28.311Z,39.90
2018-08-28T15:47:30.865Z,39.30
2018-08-28T15:52:33.513Z,38.50
2018-08-28T15:57:36.101Z,39.00
2018-08-28T16:02:38.679Z,39.30
2018-08-28T16:07:41.291Z,38.00
2018-08-28T16:12:44.049Z,38.10
2018-08-28T16:17:46.599Z,37.60
2018-08-28T16:22:53.594Z,36.40
2018-08-28T16:27:56.217Z,36.70
2018-08-28T16:32:58.770Z,36.10
2018-08-28T16:38:01.303Z,36.10
2018-08-28T16:43:03.874Z,35.40
2018-08-28T16:48:06.432Z,35.50
2018-08-28T16:53:08.961Z,35.10
2018-08-28T16:58:11.499Z,34.70
2018-08-28T17:03:14.012Z,33.80
2018-08-28T17:08:16.984Z,33.10
2018-08-28T17:13:19.556Z,32.60
2018-08-28T17:18:22.124Z,32.00
2018-08-28T17:23:24.677Z,32.30
2018-08-28T17:28:27.246Z,31.40
2018-08-28T17:33:29.803Z,30.60
2018-08-28T17:38:32.354Z,29.70
2018-08-28T17:43:34.917Z,28.20
2018-08-28T17:48:38.387Z,27.60
2018-08-28T17:53:40.916Z,25.10
2018-08-28T17:58:43.463Z,24.10
2018-08-28T18:03:46.047Z,23.20
2018-08-28T18:08:48.589Z,22.50
2018-08-28T18:13:51.130Z,21.90
2018-08-28T18:18:53.700Z,21.50
2018-08-28T18:23:56.228Z,22.30
2018-08-28T18:28:58.841Z,20.70
2018-08-28T18:34:01.360Z,20.40
2018-08-28T18:39:05.245Z,20.80
2018-08-28T18:44:07.811Z,20.00
2018-08-28T18:49:10.339Z,20.60
2018-08-28T18:54:12.907Z,20.00
2018-08-28T18:59:15.491Z,19.50
2018-08-28T19:04:18.031Z,20.00
2018-08-28T19:09:20.751Z,19.10
2018-08-28T19:14:23.197Z,18.90
2018-08-28T19:19:25.796Z,18.80
2018-08-28T19:24:28.361Z,18.60
2018-08-28T19:29:30.970Z,18.40
2018-08-28T19:34:33.503Z,18.50
2018-08-28T19:39:36.394Z,18.10
2018-08-28T19:44:38.989Z,18.10
2018-08-28T19:49:45.465Z,17.70
2018-08-28T19:54:47.989Z,17.60
2018-08-28T19:59:50.540Z,18.50
2018-08-28T20:04:53.087Z,17.50
2018-08-28T20:09:55.678Z,17.40
2018-08-28T20:14:58.269Z,17.40
2018-08-28T20:20:00.823Z,17.20
2018-08-28T20:25:03.400Z,17.30
2018-08-28T20:30:06.655Z,17.20
2018-08-28T20:35:09.192Z,17.00
2018-08-28T20:40:11.746Z,16.90
2018-08-28T20:45:14.304Z,17.10
2018-08-28T20:50:16.879Z,17.70
2018-08-28T20:55:19.407Z,16.70
2018-08-28T21:00:21.983Z,16.50
2018-08-28T21:05:28.326Z,16.30
2018-08-28T21:10:30.896Z,16.30
2018-08-28T21:15:33.443Z,16.50
2018-08-28T21:20:36.010Z,17.10
2018-08-28T21:25:38.561Z,18.40
2018-08-28T21:30:41.128Z,17.70
2018-08-28T21:35:43.782Z,18.00
2018-08-28T21:40:46.300Z,18.30
2018-08-28T21:45:48.918Z,18.30
2018-08-28T21:50:51.471Z,18.40
2018-08-28T21:55:54.015Z,18.60
2018-08-28T22:01:02.436Z,19.00
2018-08-28T22:06:05.042Z,19.10
2018-08-28T22:11:07.596Z,19.30
2018-08-28T22:16:10.169Z,19.90
2018-08-28T22:21:12.830Z,19.60
2018-08-28T22:26:15.644Z,19.70
2018-08-28T22:31:18.207Z,19.70
2018-08-28T22:36:20.835Z,20.00
2018-08-28T22:41:23.371Z,20.20
2018-08-28T22:46:25.915Z,20.20
2018-08-28T22:51:28.533Z,20.10
2018-08-28T22:56:31.051Z,20.00
2018-08-28T23:01:33.591Z,20.50
2018-08-28T23:06:36.106Z,19.80
2018-08-28T23:11:38.618Z,19.90
2018-08-28T23:16:41.151Z,19.70
2018-08-28T23:21:43.681Z,19.70
2018-08-28T23:26:46.179Z,19.60
2018-08-28T23:31:48.687Z,19.60
2018-08-28T23:36:51.223Z,19.50
2018-08-28T23:41:53.903Z,19.60
2018-08-28T23:46:56.446Z,19.40
2018-08-28T23:51:59.262Z,19.50
2018-08-28T23:57:01.815Z,19.30
